createdAt,value
2023-01-20T00:01:39.556Z,32.73
2023-01-20T00:04:08.259Z,33.90
2023-01-20T00:06:38.052Z,32.90
2023-01-20T00:09:08.054Z,33.20
2023-01-20T00:11:36.475Z,32.90
2023-01-20T00:14:04.984Z,33.40
2023-01-20T00:16:33.619Z,33.70
2023-01-20T00:19:02.191Z,34.00
2023-01-20T00:21:31.938Z,34.30
2023-01-20T00:24:02.052Z,34.60
2023-01-20T00:26:30.481Z,33.57
2023-01-20T00:28:59.018Z,33.30
2023-01-20T00:31:29.813Z,35.33
2023-01-20T00:34:00.112Z,35.53
2023-01-20T00:36:31.307Z,36.47
2023-01-20T00:39:01.995Z,39.10
2023-01-20T00:41:30.744Z,36.77
2023-01-20T00:43:59.302Z,39.20
2023-01-20T00:46:28.097Z,37.73
2023-01-20T00:48:56.736Z,39.33
2023-01-20T00:51:25.453Z,39.10
2023-01-20T00:53:54.069Z,40.53
2023-01-20T00:56:23.951Z,41.77
2023-01-20T00:58:52.394Z,40.93
2023-01-20T01:01:21.003Z,43.80
2023-01-20T01:03:49.668Z,41.73
2023-01-20T01:06:19.152Z,43.50
2023-01-20T01:08:47.450Z,42.70
2023-01-20T01:11:16.474Z,40.67
2023-01-20T01:13:46.224Z,42.27
2023-01-20T01:16:16.107Z,39.77
2023-01-20T01:18:45.005Z,42.23
2023-01-20T01:21:15.316Z,42.80
2023-01-20T01:23:44.415Z,40.77
2023-01-20T01:26:13.338Z,41.50
2023-01-20T01:28:42.307Z,42.07
2023-01-20T01:31:12.173Z,40.53
2023-01-20T01:33:41.360Z,41.63
2023-01-20T01:36:14.075Z,39.63
2023-01-20T01:38:42.562Z,40.57
2023-01-20T01:41:13.770Z,41.10
2023-01-20T01:44:02.191Z,39.90
2023-01-20T01:46:32.488Z,39.17
2023-01-20T01:49:03.956Z,40.93
2023-01-20T01:51:36.875Z,42.40
2023-01-20T01:54:09.314Z,39.20
2023-01-20T01:56:39.301Z,40.03
2023-01-20T01:59:07.722Z,37.27
2023-01-20T02:01:41.455Z,35.63
2023-01-20T02:04:12.677Z,35.50
2023-01-20T02:06:43.964Z,35.90
2023-01-20T02:09:12.880Z,36.23
2023-01-20T02:11:48.491Z,36.10
2023-01-20T02:14:19.227Z,36.47
2023-01-20T02:17:00.129Z,34.63
2023-01-20T02:20:02.635Z,36.83
2023-01-20T02:22:39.549Z,33.50
2023-01-20T02:25:59.035Z,33.17
2023-01-20T02:28:49.110Z,30.53
2023-01-20T02:31:43.494Z,32.40
2023-01-20T02:34:17.852Z,34.07
2023-01-20T02:36:52.158Z,32.70
2023-01-20T02:39:27.684Z,34.70
2023-01-20T02:42:02.541Z,35.47
2023-01-20T02:44:40.611Z,34.70
2023-01-20T02:47:14.058Z,36.07
2023-01-20T02:49:54.518Z,36.07
2023-01-20T02:52:27.082Z,34.40
2023-01-20T02:54:58.576Z,33.23
2023-01-20T02:57:32.030Z,36.23
2023-01-20T03:00:07.604Z,37.40
2023-01-20T03:02:38.770Z,38.57
2023-01-20T03:05:11.969Z,36.63
2023-01-20T03:07:42.822Z,37.83
2023-01-20T03:10:15.689Z,38.30
2023-01-20T03:12:51.240Z,37.30
2023-01-20T03:15:23.559Z,36.50
2023-01-20T03:17:52.012Z,39.83
2023-01-20T03:20:22.007Z,39.27
2023-01-20T03:22:51.122Z,37.33
2023-01-20T03:25:21.036Z,39.13
2023-01-20T03:27:49.540Z,38.80
2023-01-20T03:30:18.981Z,37.40
2023-01-20T03:32:50.658Z,36.47
2023-01-20T03:35:19.650Z,36.07
2023-01-20T03:37:49.664Z,37.13
2023-01-20T03:40:18.770Z,34.37
2023-01-20T03:42:53.893Z,33.10
2023-01-20T03:45:31.006Z,34.17
2023-01-20T03:48:05.702Z,34.10
2023-01-20T03:50:38.477Z,32.23
2023-01-20T03:53:19.857Z,29.70
2023-01-20T03:55:54.418Z,29.00
2023-01-20T03:58:28.352Z,30.30
2023-01-20T04:00:58.918Z,30.13
2023-01-20T04:03:31.437Z,30.90
2023-01-20T04:06:02.938Z,30.17
2023-01-20T04:08:36.663Z,29.90
2023-01-20T04:11:07.664Z,29.90
2023-01-20T04:13:36.724Z,27.77
2023-01-20T04:16:11.453Z,28.43
2023-01-20T04:18:42.912Z,27.93
2023-01-20T04:21:17.621Z,29.47
2023-01-20T04:23:53.408Z,28.07
2023-01-20T04:26:21.815Z,27.83
2023-01-20T04:28:50.168Z,29.17
2023-01-20T04:31:30.002Z,27.17
2023-01-20T04:33:58.798Z,28.53
2023-01-20T04:36:27.122Z,27.80
2023-01-20T04:38:57.118Z,30.17
2023-01-20T04:41:25.585Z,26.73
2023-01-20T04:43:53.910Z,27.87
2023-01-20T04:46:22.406Z,28.90
2023-01-20T04:48:50.742Z,26.67
2023-01-20T04:51:19.228Z,27.60
2023-01-20T04:53:47.755Z,26.47
2023-01-20T04:56:17.465Z,26.23
2023-01-20T04:58:45.825Z,28.60
2023-01-20T05:01:14.329Z,26.87
2023-01-20T05:03:42.705Z,27.17
2023-01-20T05:06:12.309Z,27.33
2023-01-20T05:08:41.102Z,25.97
2023-01-20T05:11:09.421Z,26.37
2023-01-20T05:13:40.339Z,26.37
2023-01-20T05:16:10.664Z,26.30
2023-01-20T05:18:39.154Z,25.80
2023-01-20T05:21:08.858Z,28.67
2023-01-20T05:23:37.387Z,26.17
2023-01-20T05:26:06.642Z,27.70
2023-01-20T05:28:35.763Z,30.03
2023-01-20T05:31:05.573Z,27.60
2023-01-20T05:33:33.869Z,29.17
2023-01-20T05:36:06.353Z,27.90
2023-01-20T05:38:34.799Z,28.40
2023-01-20T05:41:03.381Z,28.47
2023-01-20T05:43:31.756Z,29.40
2023-01-20T05:46:00.540Z,29.33
2023-01-20T05:48:30.426Z,27.80
2023-01-20T05:50:58.797Z,29.27
2023-01-20T05:53:27.151Z,29.80
2023-01-20T05:56:06.742Z,29.00
2023-01-20T05:58:35.428Z,30.27
2023-01-20T06:01:07.766Z,30.33
2023-01-20T06:03:37.670Z,29.67
2023-01-20T06:06:08.967Z,30.03
2023-01-20T06:08:37.355Z,30.53
2023-01-20T06:11:05.918Z,30.77
2023-01-20T06:13:35.443Z,30.40
2023-01-20T06:16:05.731Z,29.60
2023-01-20T06:18:37.210Z,31.63
2023-01-20T06:21:05.975Z,30.80
2023-01-20T06:23:34.479Z,30.90
2023-01-20T06:26:04.453Z,32.13
2023-01-20T06:28:33.509Z,30.87
2023-01-20T06:31:03.761Z,31.63
2023-01-20T06:33:32.912Z,25.80
2023-01-20T06:36:03.055Z,29.93
2023-01-20T06:38:33.481Z,30.20
2023-01-20T06:41:03.281Z,30.93
2023-01-20T06:43:32.743Z,31.83
2023-01-20T06:46:01.819Z,29.80
2023-01-20T06:48:30.642Z,32.50
2023-01-20T06:51:03.685Z,33.17
2023-01-20T06:53:32.143Z,30.97
2023-01-20T06:56:01.943Z,31.83
2023-01-20T06:58:31.826Z,31.80
2023-01-20T07:01:06.304Z,31.27
2023-01-20T07:03:34.847Z,31.77
2023-01-20T07:06:06.530Z,29.17
2023-01-20T07:08:34.954Z,28.87
2023-01-20T07:11:03.291Z,30.97
2023-01-20T07:13:31.663Z,31.10
2023-01-20T07:16:00.199Z,30.70
2023-01-20T07:18:28.611Z,29.13
2023-01-20T07:20:57.880Z,29.37
2023-01-20T07:23:29.182Z,31.13
2023-01-20T07:26:01.951Z,31.53
2023-01-20T07:28:32.341Z,31.30
2023-01-20T07:31:04.976Z,30.97
2023-01-20T07:33:33.780Z,30.60
2023-01-20T07:36:02.470Z,29.40
2023-01-20T07:38:32.194Z,31.20
2023-01-20T07:41:03.471Z,30.13
2023-01-20T07:43:33.815Z,29.83
2023-01-20T07:46:07.159Z,28.90
2023-01-20T07:48:35.631Z,27.97
2023-01-20T07:51:06.715Z,29.13
2023-01-20T07:53:38.623Z,29.23
2023-01-20T07:56:09.490Z,28.03
2023-01-20T07:58:38.374Z,28.80
2023-01-20T08:01:11.593Z,26.90
2023-01-20T08:03:40.368Z,29.00
2023-01-20T08:06:10.842Z,28.77
2023-01-20T08:08:41.225Z,26.67
2023-01-20T08:11:13.142Z,27.83
2023-01-20T08:13:42.195Z,27.37
2023-01-20T08:16:13.939Z,29.03
2023-01-20T08:18:42.507Z,25.43
2023-01-20T08:21:19.571Z,24.30
2023-01-20T08:23:49.541Z,24.53
2023-01-20T08:26:21.938Z,23.87
2023-01-20T08:28:55.923Z,24.87
2023-01-20T08:31:25.773Z,24.80
2023-01-20T08:33:55.395Z,23.23
2023-01-20T08:36:26.121Z,23.47
2023-01-20T08:38:56.978Z,24.17
2023-01-20T08:41:28.201Z,23.17
2023-01-20T08:43:58.941Z,23.60
2023-01-20T08:46:27.741Z,24.03
2023-01-20T08:48:56.396Z,25.53
2023-01-20T08:51:27.604Z,25.13
2023-01-20T08:53:57.481Z,24.20
2023-01-20T08:56:26.010Z,24.53
2023-01-20T08:58:55.085Z,25.47
2023-01-20T09:01:25.922Z,25.67
2023-01-20T09:04:05.527Z,26.03
2023-01-20T09:06:39.826Z,28.03
2023-01-20T09:09:09.851Z,29.77
2023-01-20T09:11:38.379Z,29.30
2023-01-20T09:14:07.059Z,32.40
2023-01-20T09:16:35.529Z,35.23
2023-01-20T09:19:04.433Z,36.17
2023-01-20T09:21:32.864Z,35.63
2023-01-20T09:24:01.429Z,35.90
2023-01-20T09:26:38.499Z,36.67
2023-01-20T09:29:10.377Z,34.17
2023-01-20T09:31:39.962Z,28.57
2023-01-20T09:34:08.620Z,28.97
2023-01-20T09:36:37.016Z,29.83
2023-01-20T09:39:22.857Z,28.13
2023-01-20T09:42:10.504Z,27.20
2023-01-20T09:44:49.638Z,26.70
2023-01-20T09:47:31.180Z,26.77
2023-01-20T09:50:54.620Z,27.20
2023-01-20T09:53:43.868Z,24.87
2023-01-20T09:56:16.573Z,26.43
2023-01-20T09:58:54.278Z,24.20
2023-01-20T10:01:30.961Z,25.73
2023-01-20T10:04:07.512Z,24.80
2023-01-20T10:06:40.473Z,25.30
2023-01-20T10:09:18.118Z,25.17
2023-01-20T10:11:48.244Z,23.73
2023-01-20T10:14:23.852Z,23.17
2023-01-20T10:16:59.075Z,23.83
2023-01-20T10:19:36.012Z,24.27
2023-01-20T10:22:11.422Z,23.07
2023-01-20T10:24:48.473Z,23.53
2023-01-20T10:27:16.860Z,23.20
2023-01-20T10:29:54.334Z,20.87
2023-01-20T10:32:29.664Z,21.60
2023-01-20T10:35:02.197Z,19.10
2023-01-20T10:37:32.689Z,19.63
2023-01-20T10:40:16.777Z,19.10
2023-01-20T10:42:49.617Z,18.67
2023-01-20T10:45:25.568Z,19.00
2023-01-20T10:48:05.926Z,17.20
2023-01-20T10:50:51.448Z,19.90
2023-01-20T10:53:46.274Z,17.00
2023-01-20T10:56:35.518Z,16.90
2023-01-20T10:59:11.120Z,18.80
2023-01-20T11:01:41.422Z,17.13
2023-01-20T11:04:19.410Z,18.13
2023-01-20T11:06:52.669Z,18.10
2023-01-20T11:09:34.466Z,17.23
2023-01-20T11:12:05.286Z,18.90
2023-01-20T11:14:35.169Z,17.27
2023-01-20T11:17:08.106Z,17.33
2023-01-20T11:19:48.179Z,18.13
2023-01-20T11:22:21.384Z,17.03
2023-01-20T11:24:54.853Z,17.40
2023-01-20T11:27:26.807Z,16.43
2023-01-20T11:30:00.572Z,17.10
2023-01-20T11:32:33.630Z,17.13
2023-01-20T11:35:04.241Z,16.87
2023-01-20T11:37:40.435Z,17.20
2023-01-20T11:40:27.473Z,16.70
2023-01-20T11:42:58.622Z,17.63
2023-01-20T11:45:31.229Z,17.33
2023-01-20T11:48:07.449Z,17.03
2023-01-20T11:50:42.588Z,16.73
2023-01-20T11:53:19.478Z,15.40
2023-01-20T11:55:51.341Z,15.77
2023-01-20T11:58:23.020Z,15.13
2023-01-20T12:00:53.401Z,16.83
2023-01-20T12:03:45.557Z,15.87
2023-01-20T12:06:19.606Z,15.40
2023-01-20T12:08:51.268Z,15.60
2023-01-20T12:11:25.420Z,14.27
2023-01-20T12:14:23.409Z,16.93
2023-01-20T12:17:12.112Z,15.13
2023-01-20T12:19:54.251Z,13.90
2023-01-20T12:22:27.507Z,14.40
2023-01-20T12:25:08.722Z,15.07
2023-01-20T12:27:43.105Z,13.80
2023-01-20T12:30:25.881Z,14.60
2023-01-20T12:32:54.313Z,13.53
2023-01-20T12:35:28.935Z,13.13
2023-01-20T12:37:58.924Z,12.83
2023-01-20T12:40:37.399Z,14.07
2023-01-20T12:43:33.359Z,13.23
2023-01-20T12:46:20.721Z,13.33
2023-01-20T12:49:01.485Z,11.67
2023-01-20T12:51:52.722Z,12.00
2023-01-20T12:54:49.289Z,12.43
2023-01-20T12:57:29.533Z,11.37
2023-01-20T13:00:16.628Z,12.10
2023-01-20T13:03:04.942Z,11.77
2023-01-20T13:06:09.392Z,11.40
2023-01-20T13:08:51.809Z,10.90
2023-01-20T13:11:32.096Z,10.90
2023-01-20T13:14:09.606Z,11.30
2023-01-20T13:16:44.650Z,11.70
2023-01-20T13:19:16.629Z,10.57
2023-01-20T13:21:45.463Z,10.97
2023-01-20T13:24:29.246Z,10.87
2023-01-20T13:26:59.910Z,9.53
2023-01-20T13:29:44.574Z,10.00
2023-01-20T13:32:46.033Z,10.87
2023-01-20T13:35:43.547Z,9.67
2023-01-20T13:38:20.745Z,9.10
2023-01-20T13:40:56.711Z,8.73
2023-01-20T13:43:36.361Z,7.97
2023-01-20T13:46:47.815Z,9.00
2023-01-20T13:49:23.206Z,8.10
2023-01-20T13:51:51.956Z,7.87
2023-01-20T13:54:43.472Z,6.93
2023-01-20T13:57:37.496Z,7.73
2023-01-20T14:00:17.828Z,6.60
2023-01-20T14:02:48.222Z,7.10
2023-01-20T14:05:31.548Z,5.90
2023-01-20T14:08:00.808Z,6.97
2023-01-20T14:10:29.796Z,6.07
2023-01-20T14:12:59.609Z,6.73
2023-01-20T14:15:36.343Z,6.97
2023-01-20T14:18:06.161Z,6.57
2023-01-20T14:20:34.670Z,7.47
2023-01-20T14:23:28.913Z,7.03
2023-01-20T14:26:02.945Z,7.97
2023-01-20T14:28:33.806Z,7.93
2023-01-20T14:31:25.104Z,9.13
2023-01-20T14:33:57.565Z,8.30
2023-01-20T14:36:28.199Z,9.13
2023-01-20T14:38:59.037Z,8.93
2023-01-20T14:41:35.690Z,8.13
2023-01-20T14:44:18.091Z,9.27
2023-01-20T14:46:47.733Z,8.17
2023-01-20T14:49:18.768Z,8.53
2023-01-20T14:51:49.206Z,9.17
2023-01-20T14:54:38.725Z,8.20
2023-01-20T14:57:29.602Z,9.20
2023-01-20T15:00:14.905Z,8.00
2023-01-20T15:02:46.008Z,9.33
2023-01-20T15:05:22.217Z,9.10
2023-01-20T15:07:50.892Z,10.47
2023-01-20T15:10:19.871Z,10.00
2023-01-20T15:12:55.948Z,9.90
2023-01-20T15:15:31.605Z,10.33
2023-01-20T15:18:18.226Z,9.23
2023-01-20T15:20:49.570Z,10.07
2023-01-20T15:23:22.313Z,10.70
2023-01-20T15:25:52.875Z,11.93
2023-01-20T15:28:27.779Z,11.47
2023-01-20T15:30:59.776Z,11.93
2023-01-20T15:33:28.387Z,11.77
2023-01-20T15:35:59.249Z,10.97
2023-01-20T15:38:32.543Z,12.30
2023-01-20T15:41:01.015Z,11.37
2023-01-20T15:43:29.740Z,11.60
2023-01-20T15:45:59.695Z,13.10
2023-01-20T15:48:28.249Z,11.00
2023-01-20T15:50:56.661Z,12.97
2023-01-20T15:53:25.254Z,13.53
2023-01-20T15:55:53.857Z,13.50
2023-01-20T15:58:28.233Z,13.10
2023-01-20T16:00:58.797Z,12.93
2023-01-20T16:03:29.268Z,13.80
2023-01-20T16:05:58.119Z,13.33
2023-01-20T16:08:37.629Z,13.50
2023-01-20T16:11:06.439Z,14.93
2023-01-20T16:13:34.931Z,13.80
2023-01-20T16:16:03.839Z,14.73
2023-01-20T16:18:33.617Z,13.83
2023-01-20T16:21:02.752Z,14.17
2023-01-20T16:23:31.319Z,13.70
2023-01-20T16:25:59.879Z,14.17
2023-01-20T16:28:28.311Z,12.33
2023-01-20T16:30:57.826Z,13.30
2023-01-20T16:33:28.243Z,12.83
2023-01-20T16:35:58.244Z,12.43
2023-01-20T16:38:26.897Z,11.57
2023-01-20T16:41:03.300Z,11.83
2023-01-20T16:43:31.739Z,13.20
2023-01-20T16:46:00.323Z,13.33
2023-01-20T16:48:28.637Z,14.27
2023-01-20T16:51:06.569Z,14.33
2023-01-20T16:53:35.252Z,14.13
2023-01-20T16:56:03.578Z,17.57
2023-01-20T16:58:32.043Z,16.37
2023-01-20T17:01:00.531Z,19.67
2023-01-20T17:03:29.025Z,18.83
2023-01-20T17:05:59.978Z,19.83
2023-01-20T17:08:28.356Z,19.57
2023-01-20T17:10:56.798Z,17.37
2023-01-20T17:13:25.386Z,17.87
2023-01-20T17:15:53.763Z,18.93
2023-01-20T17:18:22.203Z,18.40
2023-01-20T17:20:50.791Z,18.90
2023-01-20T17:23:20.698Z,17.37
2023-01-20T17:25:49.461Z,19.07
2023-01-20T17:28:17.933Z,17.77
2023-01-20T17:30:46.585Z,20.07
2023-01-20T17:33:14.983Z,17.40
2023-01-20T17:35:44.148Z,19.80
2023-01-20T17:38:13.808Z,19.40
2023-01-20T17:40:43.686Z,18.80
2023-01-20T17:43:12.220Z,18.93
2023-01-20T17:45:40.702Z,17.63
2023-01-20T17:48:09.142Z,17.33
2023-01-20T17:50:38.972Z,26.77
2023-01-20T17:53:07.422Z,17.80
2023-01-20T17:55:35.878Z,18.43
2023-01-20T17:58:05.731Z,17.47
2023-01-20T18:00:34.048Z,18.70
2023-01-20T18:03:02.437Z,17.87
2023-01-20T18:05:30.954Z,19.30
2023-01-20T18:07:59.459Z,27.57
2023-01-20T18:10:27.920Z,29.53
2023-01-20T18:12:56.300Z,26.07
2023-01-20T18:15:26.065Z,24.37
2023-01-20T18:17:54.573Z,18.57
2023-01-20T18:20:23.670Z,16.50
2023-01-20T18:22:52.687Z,17.40
2023-01-20T18:25:21.219Z,29.77
2023-01-20T18:27:49.916Z,28.47
2023-01-20T18:30:18.997Z,29.43
2023-01-20T18:32:48.963Z,36.20
2023-01-20T18:35:17.424Z,24.53
2023-01-20T18:37:45.930Z,36.33
2023-01-20T18:40:15.078Z,41.63
2023-01-20T18:42:45.145Z,60.70
2023-01-20T18:45:13.774Z,34.40
2023-01-20T18:47:42.659Z,39.03
2023-01-20T18:50:13.028Z,31.77
2023-01-20T18:52:41.523Z,35.40
2023-01-20T18:55:10.804Z,20.97
2023-01-20T18:57:39.197Z,22.83
2023-01-20T19:00:09.110Z,19.63
2023-01-20T19:02:37.680Z,20.40
2023-01-20T19:05:06.794Z,17.70
2023-01-20T19:07:36.589Z,17.17
2023-01-20T19:10:05.513Z,16.77
2023-01-20T19:12:33.948Z,17.87
2023-01-20T19:15:02.676Z,16.97
2023-01-20T19:17:33.093Z,16.93
2023-01-20T19:20:01.717Z,16.87
2023-01-20T19:22:31.028Z,27.80
2023-01-20T19:25:00.747Z,20.17
2023-01-20T19:27:29.167Z,21.67
2023-01-20T19:29:57.510Z,20.20
2023-01-20T19:32:25.863Z,20.10
2023-01-20T19:34:54.302Z,18.33
2023-01-20T19:37:22.786Z,16.37
2023-01-20T19:39:51.422Z,17.20
2023-01-20T19:42:21.154Z,17.47
2023-01-20T19:44:49.502Z,18.77
2023-01-20T19:47:17.843Z,17.87
2023-01-20T19:49:46.223Z,17.50
2023-01-20T19:52:14.812Z,20.10
2023-01-20T19:54:43.224Z,18.87
2023-01-20T19:57:11.917Z,19.40
2023-01-20T19:59:41.841Z,18.67
2023-01-20T20:02:10.857Z,17.73
2023-01-20T20:04:39.345Z,20.00
2023-01-20T20:07:07.735Z,17.57
2023-01-20T20:09:36.238Z,18.13
2023-01-20T20:12:06.464Z,17.73
2023-01-20T20:14:35.421Z,18.40
2023-01-20T20:17:05.126Z,18.47
2023-01-20T20:19:33.713Z,17.50
2023-01-20T20:22:02.113Z,17.87
2023-01-20T20:24:30.538Z,19.50
2023-01-20T20:26:58.853Z,20.07
2023-01-20T20:29:28.030Z,19.33
2023-01-20T20:31:56.399Z,17.70
2023-01-20T20:34:26.268Z,17.30
2023-01-20T20:36:54.673Z,20.30
2023-01-20T20:39:23.043Z,19.27
2023-01-20T20:41:51.321Z,19.97
2023-01-20T20:44:19.843Z,20.17
2023-01-20T20:46:48.864Z,22.67
2023-01-20T20:49:17.621Z,21.20
2023-01-20T20:51:47.726Z,21.30
2023-01-20T20:54:17.203Z,20.50
2023-01-20T20:56:46.173Z,21.03
2023-01-20T20:59:14.616Z,20.07
2023-01-20T21:01:43.103Z,20.77
2023-01-20T21:04:11.849Z,20.57
2023-01-20T21:06:40.381Z,19.10
2023-01-20T21:09:10.488Z,19.53
2023-01-20T21:11:39.412Z,18.03
2023-01-20T21:14:08.876Z,20.57
2023-01-20T21:16:37.973Z,19.13
2023-01-20T21:19:06.478Z,19.47
2023-01-20T21:21:35.090Z,19.93
2023-01-20T21:24:03.942Z,20.60
2023-01-20T21:26:34.137Z,21.53
2023-01-20T21:29:04.018Z,21.30
2023-01-20T21:31:32.696Z,21.93
2023-01-20T21:34:01.828Z,22.20
2023-01-20T21:36:32.467Z,22.37
2023-01-20T21:39:01.277Z,21.60
2023-01-20T21:41:29.736Z,21.40
2023-01-20T21:44:16.936Z,20.23
2023-01-20T21:46:45.697Z,22.70
2023-01-20T21:49:32.096Z,22.93
2023-01-20T21:52:18.207Z,21.90
2023-01-20T21:54:46.790Z,23.10
2023-01-20T21:57:15.412Z,24.27
2023-01-20T21:59:46.045Z,24.13
2023-01-20T22:02:15.532Z,23.73
2023-01-20T22:04:46.242Z,23.23
2023-01-20T22:07:15.680Z,23.53
2023-01-20T22:09:44.299Z,24.47
2023-01-20T22:12:13.557Z,25.43
2023-01-20T22:14:43.031Z,24.07
2023-01-20T22:17:13.725Z,23.63
2023-01-20T22:19:43.909Z,23.03
2023-01-20T22:22:15.001Z,23.30
2023-01-20T22:24:43.749Z,26.33
2023-01-20T22:27:12.125Z,25.83
2023-01-20T22:29:40.561Z,24.53
2023-01-20T22:32:09.348Z,25.70
2023-01-20T22:34:39.065Z,25.00
2023-01-20T22:37:07.445Z,24.97
2023-01-20T22:39:35.840Z,24.37
2023-01-20T22:42:04.450Z,24.43
2023-01-20T22:44:32.865Z,22.43
2023-01-20T22:47:01.728Z,25.20
2023-01-20T22:49:30.133Z,25.10
2023-01-20T22:51:59.996Z,27.97
2023-01-20T22:54:28.286Z,26.80
2023-01-20T22:56:56.685Z,26.57
2023-01-20T22:59:25.187Z,27.77
2023-01-20T23:01:53.744Z,27.03
2023-01-20T23:04:22.103Z,26.87
2023-01-20T23:06:50.515Z,28.47
2023-01-20T23:09:20.261Z,27.73
2023-01-20T23:11:49.996Z,27.47
2023-01-20T23:14:38.429Z,28.07
2023-01-20T23:17:06.718Z,27.70
2023-01-20T23:19:35.043Z,26.40
2023-01-20T23:22:03.438Z,25.53
2023-01-20T23:24:33.275Z,25.60
2023-01-20T23:27:01.606Z,27.40
2023-01-20T23:29:30.160Z,28.23
2023-01-20T23:31:58.739Z,27.80
2023-01-20T23:34:27.138Z,27.87
2023-01-20T23:36:55.407Z,26.83
2023-01-20T23:39:23.728Z,27.47
2023-01-20T23:41:54.968Z,27.23
2023-01-20T23:44:23.294Z,27.30
2023-01-20T23:46:51.587Z,27.97
2023-01-20T23:49:22.452Z,27.83
2023-01-20T23:51:51.003Z,27.20
2023-01-20T23:54:19.399Z,28.03
2023-01-20T23:56:47.766Z,28.40
2023-01-20T23:59:17.484Z,26.40
